ADDS METAR Data INFO
IDs: Format: Raw Decoded Include TAF

Data at: 2113 UTC 22 Oct 2017

KGPT 222053Z 34010KT 10SM FEW010 BKN075 OVC100 21/20 A3000 RMK AO2 WSHFT 1941 LTG DSNT E AND SE RAE13B19E33 TSE1958 SLP159 P0001 60089 T02110200 56005
KGPT 222018Z 34013KT 10SM SCT031 OVC070 21/20 A2999 RMK AO2 WSHFT 1941 RAE13 TSE1958 P0001 T02110200
KGPT 222001Z 33013G18KT 5SM -RA BR SCT008 BKN025 OVC030 21/21 A2999 RMK AO2 WSHFT 1941 TSE1958 P0001 T02110206
KGPT 221955Z 32013KT 5SM -TSRA BR SCT008 BKN017 OVC025 21/21 A3000 RMK AO2 WSHFT 1941 P0000 T02110206
KGPT 221953Z 32012KT 3SM -TSRA BR BKN008 BKN017 OVC025 21/21 A3000 RMK AO2 RAB04 TSE07B10 SLP160 P0060 T02110206
KGPT 221950Z 31012KT 2SM TSRA BR BKN008 BKN015 OVC025 21/21 A3001 RMK AO2 RAB04 TSE07B10 P0060
KGPT 221941Z 32011G20KT 1/2SM +TSRA FG BKN008 BKN014 OVC023 22/22 A3000 RMK AO2 LTG DSNT SW RAB04 TSE07B10 P0057 T02170217 RVRNO
KGPT 221931Z 20004KT 1/2SM +TSRA FG SCT006 BKN018 OVC024 22/22 A3001 RMK AO2 LTG DSNT E AND SW RAB04 TSE07B10 PRESRR P0040 T02220222 RVRNO
KGPT 221918Z 34007KT 1 1/4SM +TSRA BR SCT006 BKN025 OVC038 22/22 A2999 RMK AO2 LTG DSNT SW RAB04 TSE07B10 P0015 T02220222
KGPT 221910Z 32006KT 2SM +TSRA BR SCT006 BKN015 OVC028 23/22 A2999 RMK AO2 VIS 1 1/2V5 LTG DSNT SW AND NW RAB04 TSE07B10 P0008 T02280222
KGPT 221853Z 30008KT 10SM TS BKN005 BKN036 OVC075 23/22 A3000 RMK AO2 LTG DSNT E-SW RAE40 TSB52 SLP157 P0028 T02280222
KGPT 221830Z 06010KT 3SM VCTS -RA BR FEW007 BKN041 OVC080 23/22 A2997 RMK AO2 LTG DSNT ALQDS P0028 T02280222
KGPT 221819Z 08009KT 4SM -RA BR SCT007 BKN021 OVC039 23/23 A2999 RMK AO2 LTG DSNT ALQDS P0026 T02330228
KGPT 221804Z 09007KT 1 1/2SM RA BR FEW008 BKN027 OVC065 23/23 A3000 RMK AO2 LTG DSNT ALQDS PRESFR P0014 T02330228
KGPT 221800Z 13006KT 1 1/4SM VCTS +RA BR FEW008 BKN045 OVC070 23/22 A3002 RMK AO2 LTG DSNT ALQDS P0005 T02330222
KGPT 221753Z 08003KT 5SM VCTS -RA BR BKN011 BKN035 OVC080 23/22 A3002 RMK AO2 LTG DSNT ALQDS SLP164 P0014 60369 T02280217 10239 20211 58010
KGPT 221714Z 09003KT 5SM -RA BR BKN011 BKN035 OVC080 23/22 A3003 RMK AO2 LTG DSNT ALQDS P0005 T02280217
KGPT 221653Z 13006KT 3SM RA BR FEW007 BKN090 OVC110 22/22 A3004 RMK AO2 LTG DSNT ALQDS TSE14B16E25 SLP172 P0022 T02220217
KGPT 221628Z 10003KT 6SM VCTS -RA BR FEW007 BKN032 OVC070 22/22 A3004 RMK AO2 LTG DSNT N-SE TSE14B16E25 P0015 T02220217
KGPT 221625Z 04003KT 2SM VCTS -RA BR FEW007 BKN032 OVC075 22/22 A3004 RMK AO2 LTG DSNT N-SE TSE14B16E25 P0015 T02220217
KGPT 221616Z VRB03KT 1 1/4SM +TSRA BR FEW008 BKN040 OVC075 22/22 A3004 RMK AO2 LTG DSNT ALQDS TSE14B16 P0012 T02170217
KGPT 221612Z 09005KT 1 3/4SM +TSRA BR FEW010 BKN060 OVC080 22/21 A3005 RMK AO2 LTG DSNT ALQDS P0009 T02170211
KGPT 221553Z 34006KT 7SM -TSRA BKN015 BKN050 OVC100 22/22 A3005 RMK AO2 PK WND 30035/1511 WSHFT 1528 LTG DSNT ALQDS SLP174 P0219 T02170217
KGPT 221550Z 33007KT 2SM -TSRA BR BKN013 OVC050 22/22 A3005 RMK AO2 PK WND 30035/1511 WSHFT 1528 LTG DSNT ALQDS P0219
KGPT 221544Z 32011G22KT 1/2SM +TSRA FG BKN011 OVC050 22/22 A3004 RMK AO2 PK WND 30035/1511 WSHFT 1528 LTG DSNT ALQDS P0218 T02170217 RVRNO
KGPT 221530Z 29015G21KT 1/4SM +TSRA FG FEW006 OVC010 21/21 A3007 RMK AO2 PK WND 30035/1511 LTG DSNT ALQDS P0160 T02110206 RVRNO
KGPT 221517Z 29017G35KT 1/2SM +TSRA FG FEW006 BKN010 OVC018 22/22 A3007 RMK AO2 PK WND 30035/1511 LTG DSNT ALQDS P0087 T02220217 RVRNO
KGPT 221506Z 28013G21KT 1/4SM +TSRA FG BKN006 BKN012 OVC018 23/22 A3006 RMK AO2 LTG DSNT ALQDS P0050 T02280222 RVRNO
KGPT 221458Z 27009G16KT 3/4SM +TSRA BR FEW006 BKN012 OVC018 24/23 A3005 RMK AO2 LTG DSNT ALQDS PRESRR P0013 T02390233 RVRNO
KGPT 221453Z VRB04G18KT 1 1/2SM +TSRA BR FEW007 OVC012 24/23 A3004 RMK AO2 LTG DSNT ALQDS SLP172 P0052 60114 T02390233 53009
KGPT 221446Z 16009G18KT 110V200 2 1/2SM TSRA BR FEW007 OVC012 23/23 A3002 RMK AO2 LTG DSNT ALQDS P0042 T02330233
KGPT 221424Z 04008KT 3SM -TSRA BR BKN012 BKN018 OVC029 23/22 A3003 RMK AO2 LTG DSNT ALQDS P0035 T02280222
KGPT 221419Z 35012KT 1SM +TSRA BR BKN014 BKN018 OVC029 23/22 A3003 RMK AO2 LTG DSNT ALQDS P0034 T02280222 RVRNO
KGPT 221408Z VRB04KT 3/4SM +TSRA BR BKN020 BKN029 OVC037 23/22 A3003 RMK AO2 LTG DSNT ALQDS P0025 T02280222 RVRNO
KGPT 221357Z VRB05KT 1 1/4SM +TSRA BR SCT008 BKN016 OVC034 23/22 A3004 RMK AO2 LTG DSNT ALQDS P0008 T02280222
KGPT 221353Z 26005KT 3/4SM TSRA BR BKN008 BKN014 OVC034 23/22 A3003 RMK AO2 LTG DSNT ALQDS RAB1258 TSB21 SLP167 P0051 T02280222 RVRNO
KGPT 221340Z VRB03KT 3/4SM +TSRA BR BKN008 BKN015 OVC022 22/22 A3005 RMK AO2 LTG DSNT ALQDS RAB1258 TSB21 PRESRR P0015 T02220222 RVRNO
KGPT 221337Z 29003KT 2SM TSRA BR SCT008 BKN013 OVC041 22/22 A3005 RMK AO2 LTG DSNT ALQDS RAB1258 TSB21 PRESRR P0006 T02220217
KGPT 221332Z 30004KT 5SM -TSRA BR BKN008 BKN019 OVC034 23/22 A3004 RMK AO2 LTG DSNT ALQDS RAB1258 TSB21 PRESRR P0004 T02280217
KGPT 221321Z 00000KT 10SM -TSRA SCT017 BKN026 OVC050 22/22 A3003 RMK AO2 LTG DSNT ALQDS RAB1258 TSB21 P0002 T02220222
KGPT 221253Z 04009KT 10SM VCTS FEW021 BKN043 OVC075 22/22 A3002 RMK AO2 LTG DSNT ALQDS RAB09E50 TSB14E53 SLP163 P0011 T02220217
KGPT 221251Z 04008KT 10SM TS SCT021 BKN043 OVC075 22/22 A3001 RMK AO2 LTG DSNT ALQDS RAB09E50 TSB14 P0011
KGPT 221218Z VRB05KT 5SM -TSRA BR SCT009 BKN020 BKN039 23/22 A3004 RMK AO2 LTG DSNT SW-N RAB09 TSB14 P0003 T02280222
KGPT 221153Z 07006KT 10SM FEW023 SCT055 OVC070 23/21 A3003 RMK AO2 LTG DSNT S AND SW RAE1056 SLP168 P0000 60000 T02280211 10256 20222 58002
KGPT 221053Z 06005KT 10SM -RA SCT036 BKN055 OVC070 23/21 A3004 RMK AO2 RAB45 SLP171 P0000 T02280211
KGPT 220953Z AUTO 02004KT 10SM FEW027 BKN050 OVC060 23/21 A3003 RMK AO2 SLP167 T02330211
KGPT 220853Z AUTO 12007KT 10SM BKN035 25/22 A3003 RMK AO2 SLP170 T02500222 55013
KGPT 220753Z AUTO 12011KT 10SM CLR 25/22 A3003 RMK AO2 SLP168 T02500222
KGPT 220653Z AUTO 11010KT 10SM CLR 25/22 A3005 RMK AO2 SLP175 T02500217
KGPT 220553Z AUTO 11010KT 10SM CLR 25/21 A3007 RMK AO2 SLP182 60000 T02500211 10261 20244 402940206 58007
KGPT 220453Z AUTO 12011KT 10SM CLR 25/22 A3009 RMK AO2 SLP187 T02500222
KGPT 220353Z AUTO 11014KT 10SM CLR 25/22 A3010 RMK AO2 SLP193 T02500222
KGPT 220253Z 11013KT 10SM SCT060 25/23 A3009 RMK AO2 SLP189 60000 T02500228 53008
KGPT 220153Z AUTO 11017G22KT 10SM FEW030 SCT050 26/23 A3007 RMK AO2 SLP183 T02560228
KGPT 220053Z 11012KT 10SM FEW023 BKN040 OVC060 25/23 A3007 RMK AO2 PK WND 12026/0007 RAB13E25 SLP182 P0000 T02500233
KGPT 220023Z 11014KT 9SM -RA FEW016 BKN037 OVC060 24/23 A3008 RMK AO2 PK WND 12026/0007 RAB13 P0000 T02440233
KGPT 212353Z 11013KT 10SM BKN025 OVC070 26/23 A3007 RMK AO2 SLP182 T02610228 10294 20256 53007
KGPT 212325Z 10014KT 10SM BKN028 BKN065 OVC080 26/22 A3006 RMK AO2 T02610222
KGPT 212253Z 11013KT 10SM OVC065 26/23 A3006 RMK AO2 SLP177 T02610233
KGPT 212153Z 11019KT 10SM FEW013 FEW060 27/24 A3005 RMK AO2 SLP175 T02720239
KGPT 212053Z 11017KT 10SM SCT026 28/23 A3005 RMK AO2 PK WND 10027/1955 SLP175 T02780233 56012
KGPT 211953Z 11019G25KT 10SM SCT029 BKN060 28/23 A3005 RMK AO2 SLP175 T02830233
KGPT 211853Z 11016G23KT 10SM FEW021 FEW027 BKN033 29/23 A3007 RMK AO2 SLP181 T02890233
KGPT 211753Z COR 11018G23KT 10SM FEW024 SCT033 28/23 A3008 RMK AO2 SLP187 T02780233 10283 20206 58006
KGPT 211653Z 11015G22KT 10SM FEW040 BKN060 28/23 A3009 RMK AO2 SLP189 T02830233
KGPT 211553Z 12011KT 10SM FEW039 BKN055 BKN070 27/23 A3011 RMK AO2 SLP194 T02720228
KGPT 211453Z 08007KT 10SM SCT035 25/21 A3010 RMK AO2 SLP192 T02500211 51014
KGPT 211353Z 07006KT 10SM CLR 23/20 A3009 RMK AO2 SLP188 T02280200
KGPT 211253Z 08003KT 10SM CLR 21/19 A3008 RMK AO2 SLP186 T02110189
KGPT 211153Z 07004KT 10SM CLR 21/19 A3006 RMK AO2 SLP178 T02060189 10228 20206 53008
KGPT 211053Z AUTO 07004KT 10SM CLR 21/19 A3005 RMK AO2 SLP174 T02110189
KGPT 210953Z AUTO 07004KT 10SM CLR 21/19 A3004 RMK AO2 SLP172 T02110194